KWVI/WVI METAR and TAF weather

Enter ICAO airport designator
Station Type Date Time Source
KWVI METAR 2020/09/22 22:53 UTC NOAA

KWVI 222253Z AUTO 17007KT 10SM CLR 22/15 A3003 RMK AO2 SLP168 T02170150


Station Type Date Time Source
KWVI Decoded METAR 2020/09/22 22:53 UTC NOAA

WATSONVILLE MUNICIPAL AIRPORT , CA, United States (KWVI) 36-56N 121-47W 43M
Sep 22, 2020 - 06:53 PM EDT / 2020.09.22 2253 UTC
Wind: from the S (170 degrees) at 8 MPH (7 KT):0
Visibility: 10 mile(s):0
Sky conditions: clear
Temperature: 71.1 F (21.7 C)
Dew Point: 59.0 F (15.0 C)
Relative Humidity: 65%
Pressure (altimeter): 30.03 in. Hg (1016 hPa)
ob: KWVI 222253Z AUTO 17007KT 10SM CLR 22/15 A3003 RMK AO2 SLP168 T02170150
cycle: 23

Station Type Date Time Source
KWVI TAF UTC NOAA

Error!

Example: see airport list